Time;durP1;ratioP1;P1;durP2;ratioP2;P2;SDS_P1;SDS_P2;PMS_P1;PMS_P2;Temp;Humidity;BMP_temperature;BMP_pressure;BME280_temperature;BME280_humidity;BME280_pressure;Samples;Min_cycle;Max_cycle;Signal;HPM_P1;HPM_P2
2021/03/15 00:00:30;;;;;;;3.30;1.40;;;4.30;94.10;;;;;;4863849;29;20050;-84
2021/03/15 00:10:14;;;;;;;15.45;2.63;;;4.20;94.10;;;;;;4863472;29;20041;-85
2021/03/15 00:16:03;;;;;;;4.18;2.13;;;4.30;94.40;;;;;;4863309;29;20076;-85
2021/03/15 00:21:51;;;;;;;7.72;2.97;;;4.40;94.40;;;;;;4863454;29;20050;-85
2021/03/15 00:27:41;;;;;;;12.88;3.65;;;4.40;94.30;;;;;;4863394;29;20036;-84
2021/03/15 00:33:29;;;;;;;23.90;5.68;;;4.40;94.60;;;;;;4863140;29;20037;-85
2021/03/15 00:39:17;;;;;;;13.35;3.38;;;4.50;94.30;;;;;;4863253;29;20113;-84
2021/03/15 00:45:07;;;;;;;8.48;2.75;;;4.50;94.30;;;;;;4863053;29;20493;-84
2021/03/15 00:50:55;;;;;;;5.22;2.30;;;4.50;94.30;;;;;;4862911;29;20029;-84
2021/03/15 00:56:44;;;;;;;17.67;4.40;;;4.50;94.30;;;;;;4862575;29;20459;-84
2021/03/15 01:02:32;;;;;;;10.93;3.30;;;4.60;94.20;;;;;;4863018;29;20036;-85
2021/03/15 01:12:14;;;;;;;16.10;4.60;;;4.50;94.20;;;;;;4863136;29;20098;-85
2021/03/15 01:18:03;;;;;;;20.98;5.78;;;4.40;94.10;;;;;;4862658;29;20033;-85
2021/03/15 01:23:51;;;;;;;18.80;5.50;;;4.30;93.90;;;;;;4862928;29;20036;-84
2021/03/15 01:29:40;;;;;;;9.63;4.18;;;4.20;94.00;;;;;;4861897;29;20502;-83
2021/03/15 01:35:28;;;;;;;28.15;8.40;;;4.10;93.90;;;;;;4862098;29;20401;-84
2021/03/15 01:41:17;;;;;;;33.97;9.48;;;4.00;93.90;;;;;;4862081;29;20130;-84
2021/03/15 01:47:06;;;;;;;19.42;6.68;;;3.90;94.00;;;;;;4862359;29;20041;-84
2021/03/15 01:52:55;;;;;;;28.80;8.68;;;3.90;94.10;;;;;;4862303;29;20040;-84
2021/03/15 01:58:45;;;;;;;34.05;7.78;;;3.90;94.10;;;;;;4862232;29;20045;-83
2021/03/15 02:04:33;;;;;;;27.05;8.02;;;3.90;94.10;;;;;;4862011;29;20403;-83
2021/03/15 02:14:26;;;;;;;5.95;2.75;;;3.80;94.10;;;;;;4861518;29;20060;-84
2021/03/15 02:21:10;;;;;;;14.32;3.78;;;3.80;94.10;;;;;;4861542;29;20068;-83
2021/03/15 02:27:28;;;;;;;31.05;8.38;;;3.80;94.30;;;;;;4862966;29;20106;-83
2021/03/15 02:33:40;;;;;;;21.20;4.47;;;3.90;94.30;;;;;;4865142;29;20036;-83
2021/03/15 02:39:37;;;;;;;8.95;3.72;;;4.00;94.30;;;;;;4865261;29;20039;-83
2021/03/15 02:45:26;;;;;;;23.70;7.95;;;4.00;94.40;;;;;;4864753;29;20036;-83
2021/03/15 02:51:20;;;;;;;35.75;9.50;;;4.00;94.30;;;;;;4865065;29;20393;-83
2021/03/15 02:57:09;;;;;;;29.27;7.25;;;4.10;94.30;;;;;;4864643;29;20055;-83
2021/03/15 03:02:58;;;;;;;19.15;6.00;;;4.10;94.30;;;;;;4864944;29;20048;-83
2021/03/15 03:08:49;;;;;;;10.88;4.18;;;4.10;94.40;;;;;;4864725;29;20554;-83
2021/03/15 03:14:41;;;;;;;14.23;4.32;;;4.20;94.40;;;;;;4864792;29;20072;-83
2021/03/15 03:20:30;;;;;;;38.90;8.52;;;4.30;94.50;;;;;;4864304;29;20435;-83
2021/03/15 03:26:26;;;;;;;46.28;10.43;;;4.40;94.60;;;;;;4864085;29;20033;-83
2021/03/15 03:32:16;;;;;;;33.78;9.73;;;4.60;94.60;;;;;;4864067;29;20354;-83
2021/03/15 03:38:04;;;;;;;34.03;10.30;;;4.70;94.70;;;;;;4862856;29;20081;-83
2021/03/15 03:43:53;;;;;;;23.73;7.43;;;4.80;94.60;;;;;;4863832;29;20521;-83
2021/03/15 03:49:42;;;;;;;33.65;9.32;;;4.80;94.60;;;;;;4864105;29;20036;-84
2021/03/15 03:55:42;;;;;;;41.80;10.68;;;4.90;94.50;;;;;;4863893;29;20048;-85
2021/03/15 04:01:41;;;;;;;33.00;8.75;;;4.90;94.40;;;;;;4863742;29;20041;-85
2021/03/15 04:07:32;;;;;;;50.20;11.68;;;4.80;94.30;;;;;;4863834;29;20060;-84
2021/03/15 04:17:27;;;;;;;36.83;8.32;;;4.80;94.50;;;;;;4863524;29;20426;-83
2021/03/15 04:23:21;;;;;;;29.27;8.50;;;4.90;94.50;;;;;;4863349;29;20040;-84
2021/03/15 04:29:10;;;;;;;24.60;7.38;;;4.90;94.50;;;;;;4862983;29;20078;-84
2021/03/15 04:34:59;;;;;;;36.45;9.13;;;4.90;94.50;;;;;;4863033;29;20533;-84
2021/03/15 04:40:49;;;;;;;46.33;9.32;;;4.90;94.50;;;;;;4862817;29;20088;-83
2021/03/15 04:46:38;;;;;;;20.45;6.22;;;4.90;94.50;;;;;;4862921;29;20089;-84
2021/03/15 04:52:28;;;;;;;37.20;9.70;;;5.00;94.50;;;;;;4862800;29;20428;-84
2021/03/15 04:58:18;;;;;;;68.10;22.70;;;4.90;94.30;;;;;;4862874;29;20044;-84
2021/03/15 05:04:10;;;;;;;28.05;7.90;;;4.70;94.10;;;;;;4863142;29;20074;-85
2021/03/15 05:10:00;;;;;;;23.13;7.88;;;4.60;94.20;;;;;;4863332;29;20498;-84
2021/03/15 05:19:50;;;;;;;21.65;7.03;;;4.80;94.50;;;;;;4862490;29;20139;-84
2021/03/15 05:25:40;;;;;;;19.88;8.43;;;4.80;94.40;;;;;;4862132;29;20033;-84
2021/03/15 05:31:30;;;;;;;28.63;9.35;;;4.80;94.50;;;;;;4862283;29;20036;-84
2021/03/15 05:37:19;;;;;;;25.05;8.20;;;4.80;94.40;;;;;;4862052;29;20092;-84
2021/03/15 05:43:21;;;;;;;49.28;13.32;;;4.80;94.40;;;;;;4862009;29;20085;-84
2021/03/15 05:49:53;;;;;;;24.10;7.68;;;4.90;94.40;;;;;;4861770;29;20502;-84
2021/03/15 05:55:53;;;;;;;22.60;5.65;;;4.90;94.60;;;;;;4861857;29;20056;-85
2021/03/15 06:01:59;;;;;;;30.95;9.35;;;5.10;94.70;;;;;;4861135;29;20502;-85
2021/03/15 06:08:20;;;;;;;21.02;7.50;;;5.30;94.80;;;;;;4861799;29;20106;-85
2021/03/15 06:14:09;;;;;;;23.83;7.35;;;5.50;94.80;;;;;;4861761;29;20522;-83
2021/03/15 06:19:59;;;;;;;25.33;7.97;;;5.70;94.70;;;;;;4861620;29;20036;-89
2021/03/15 06:25:48;;;;;;;28.60;8.63;;;5.80;94.60;;;;;;4865411;29;20101;-88
2021/03/15 06:31:39;;;;;;;23.55;7.70;;;5.90;94.60;;;;;;4862712;29;20093;-89
2021/03/15 06:37:28;;;;;;;23.23;8.10;;;5.90;94.60;;;;;;4862636;29;20037;-88
2021/03/15 06:43:20;;;;;;;19.70;7.15;;;6.00;94.50;;;;;;4861327;29;20427;-81
2021/03/15 06:49:08;;;;;;;21.58;7.55;;;6.10;94.50;;;;;;4861198;29;20094;-83
2021/03/15 06:55:00;;;;;;;23.05;9.15;;;6.20;94.50;;;;;;4861237;29;20475;-83
2021/03/15 07:01:09;;;;;;;25.95;8.77;;;6.30;94.60;;;;;;4860993;29;20162;-84
2021/03/15 07:06:59;;;;;;;20.63;7.63;;;6.30;94.20;;;;;;4861108;29;20109;-83
2021/03/15 07:12:48;;;;;;;18.77;6.80;;;6.20;94.40;;;;;;4862214;29;20048;-82
2021/03/15 07:22:45;;;;;;;17.73;5.75;;;6.10;94.00;;;;;;4864289;29;20039;-82
2021/03/15 07:28:33;;;;;;;9.27;2.58;;;5.80;93.60;;;;;;4864018;29;20036;-83
2021/03/15 07:34:21;;;;;;;18.13;5.20;;;5.60;94.00;;;;;;4864143;29;20074;-84
2021/03/15 07:40:11;;;;;;;12.73;4.43;;;5.40;93.80;;;;;;4864108;29;20072;-84
2021/03/15 07:45:59;;;;;;;17.75;5.70;;;5.30;93.80;;;;;;4863916;29;20036;-83
2021/03/15 07:51:52;;;;;;;8.80;3.53;;;5.50;94.30;;;;;;4863635;29;20043;-83
2021/03/15 07:57:40;;;;;;;4.93;2.13;;;5.50;94.10;;;;;;4863770;29;20438;-86
2021/03/15 08:03:29;;;;;;;9.40;2.35;;;5.50;94.10;;;;;;4863759;29;20037;-85
2021/03/15 08:09:18;;;;;;;4.38;1.95;;;5.60;94.40;;;;;;4863467;29;20131;-84
2021/03/15 08:15:13;;;;;;;9.63;2.22;;;5.70;94.20;;;;;;4863392;29;20048;-83
2021/03/15 08:25:03;;;;;;;10.20;3.88;;;6.00;94.60;;;;;;4862791;29;20602;-82
2021/03/15 08:30:58;;;;;;;11.00;3.40;;;6.20;94.40;;;;;;4863205;29;20040;-83
2021/03/15 08:36:47;;;;;;;11.18;3.38;;;6.30;94.30;;;;;;4862965;29;20599;-82
2021/03/15 08:42:36;;;;;;;11.20;4.45;;;6.60;94.60;;;;;;4863010;29;20031;-82
2021/03/15 08:48:33;;;;;;;6.18;2.15;;;6.70;94.60;;;;;;4862862;29;20036;-82
2021/03/15 08:54:40;;;;;;;12.23;3.95;;;6.80;94.40;;;;;;4862789;29;20048;-82
2021/03/15 09:00:33;;;;;;;11.20;4.18;;;6.80;94.00;;;;;;4862490;29;20040;-81
2021/03/15 09:06:32;;;;;;;7.85;3.47;;;6.80;94.20;;;;;;4862510;29;20060;-84
2021/03/15 09:12:20;;;;;;;4.25;1.73;;;6.80;94.10;;;;;;4862513;29;20162;-82
2021/03/15 09:18:48;;;;;;;7.82;3.22;;;6.70;93.70;;;;;;4862631;29;20056;-83
2021/03/15 09:24:46;;;;;;;11.38;4.28;;;6.70;93.90;;;;;;4862281;29;20522;-83
2021/03/15 09:30:35;;;;;;;6.10;2.55;;;6.80;94.10;;;;;;4862221;29;20044;-82
2021/03/15 09:36:29;;;;;;;12.32;4.05;;;6.80;93.90;;;;;;4860929;29;20049;-84
2021/03/15 09:42:20;;;;;;;8.93;3.63;;;7.00;94.50;;;;;;4861729;29;20037;-82
2021/03/15 09:48:20;;;;;;;13.45;4.65;;;7.20;94.00;;;;;;4862007;29;20565;-81
2021/03/15 09:54:07;;;;;;;10.02;3.70;;;7.30;94.20;;;;;;4861926;29;20048;-82
2021/03/15 10:00:08;;;;;;;2.08;1.20;;;7.20;93.90;;;;;;4862064;29;20044;-84
2021/03/15 10:06:00;;;;;;;7.93;2.97;;;7.00;93.50;;;;;;4861703;29;20093;-81
2021/03/15 10:11:48;;;;;;;11.43;4.28;;;7.00;94.20;;;;;;4861555;29;20040;-82
2021/03/15 10:17:37;;;;;;;5.63;1.98;;;7.10;94.10;;;;;;4861587;29;20509;-82
2021/03/15 10:27:29;;;;;;;11.30;4.18;;;7.20;94.20;;;;;;4861542;29;20117;-83
2021/03/15 10:33:20;;;;;;;8.98;2.60;;;7.30;93.70;;;;;;4861252;29;20489;-83
2021/03/15 10:39:08;;;;;;;5.63;2.38;;;7.30;94.30;;;;;;4861209;29;20451;-84
2021/03/15 10:44:59;;;;;;;5.38;2.28;;;7.50;94.40;;;;;;4861376;29;20052;-84
2021/03/15 10:50:50;;;;;;;4.35;1.85;;;7.60;93.90;;;;;;4864888;29;20100;-84
2021/03/15 10:56:38;;;;;;;3.15;1.48;;;7.30;93.30;;;;;;4864537;29;20052;-84
2021/03/15 11:02:28;;;;;;;6.47;2.33;;;7.00;93.60;;;;;;4864314;29;20544;-84
2021/03/15 11:08:20;;;;;;;4.30;1.70;;;6.80;93.70;;;;;;4864703;29;20538;-84
2021/03/15 11:14:10;;;;;;;7.38;2.30;;;6.70;93.80;;;;;;4864529;29;20094;-84
2021/03/15 11:19:59;;;;;;;3.55;1.70;;;6.70;93.80;;;;;;4864479;29;20490;-83
2021/03/15 11:29:52;;;;;;;5.68;2.20;;;6.90;94.40;;;;;;4864241;29;20040;-84
2021/03/15 11:35:41;;;;;;;4.05;1.67;;;7.00;94.50;;;;;;4863792;29;20521;-85
2021/03/15 11:41:32;;;;;;;11.55;3.47;;;7.50;95.30;;;;;;4863926;29;20036;-84
2021/03/15 11:47:20;;;;;;;3.88;1.90;;;8.00;94.60;;;;;;4863590;29;20033;-83
2021/03/15 11:53:08;;;;;;;8.02;2.33;;;8.00;94.00;;;;;;4864110;29;20485;-84
2021/03/15 11:58:57;;;;;;;10.10;3.00;;;8.40;94.80;;;;;;4862953;29;20513;-84
2021/03/15 12:04:46;;;;;;;6.13;2.60;;;8.70;94.50;;;;;;4863434;29;20428;-84
2021/03/15 12:10:36;;;;;;;5.43;2.17;;;8.40;93.50;;;;;;4865129;29;20513;-84
2021/03/15 12:16:25;;;;;;;1.42;1.17;;;8.60;94.20;;;;;;4863326;29;20043;-84
2021/03/15 12:22:13;;;;;;;2.60;1.65;;;8.70;94.50;;;;;;4863161;29;20513;-83
2021/03/15 12:31:54;;;;;;;7.65;2.83;;;8.70;93.20;;;;;;4863403;29;20139;-85
2021/03/15 12:37:42;;;;;;;3.60;1.73;;;8.70;93.80;;;;;;4863341;29;20068;-83
2021/03/15 12:43:31;;;;;;;7.43;2.80;;;8.50;93.40;;;;;;4863345;29;20080;-83
2021/03/15 12:49:19;;;;;;;5.00;2.15;;;9.10;95.20;;;;;;4863151;29;20041;-85
2021/03/15 12:55:09;;;;;;;4.95;2.13;;;9.70;94.00;;;;;;4863198;29;20391;-86
2021/03/15 13:00:57;;;;;;;4.72;2.10;;;9.70;93.80;;;;;;4862695;29;20406;-85
2021/03/15 13:06:45;;;;;;;3.15;1.83;;;9.90;93.90;;;;;;4862683;29;20036;-84
2021/03/15 13:12:34;;;;;;;2.88;1.50;;;9.90;93.60;;;;;;4862447;29;20454;-85
2021/03/15 13:18:24;;;;;;;2.45;1.75;;;10.10;94.00;;;;;;4862355;29;20551;-83
2021/03/15 13:24:12;;;;;;;2.78;1.50;;;12.00;96.50;;;;;;4862027;29;20503;-84
2021/03/15 13:33:55;;;;;;;3.13;1.70;;;10.50;91.20;;;;;;4862232;29;20513;-83
2021/03/15 13:39:44;;;;;;;2.63;1.63;;;11.10;95.50;;;;;;4861677;29;20048;-85
2021/03/15 13:45:33;;;;;;;3.03;1.90;;;12.50;95.40;;;;;;4861917;29;20139;-84
2021/03/15 13:51:21;;;;;;;2.80;1.60;;;12.50;92.80;;;;;;4864882;29;20075;-86
2021/03/15 13:57:10;;;;;;;3.42;1.67;;;12.10;92.10;;;;;;4861886;29;20053;-85
2021/03/15 14:02:58;;;;;;;1.40;1.30;;;11.40;92.20;;;;;;4861975;29;20577;-84
2021/03/15 14:08:48;;;;;;;1.70;1.40;;;11.20;93.30;;;;;;4861498;29;20535;-84
2021/03/15 14:14:36;;;;;;;1.40;1.20;;;10.80;92.50;;;;;;4861560;29;20137;-84
2021/03/15 14:20:24;;;;;;;2.10;1.60;;;10.40;92.90;;;;;;4861586;29;20032;-83
2021/03/15 14:26:13;;;;;;;2.65;1.63;;;10.00;92.90;;;;;;4867585;29;20124;-83
2021/03/15 14:35:56;;;;;;;1.73;1.13;;;10.10;94.90;;;;;;4869525;29;20113;-83
2021/03/15 14:41:44;;;;;;;2.42;1.52;;;11.30;96.20;;;;;;4867877;29;20112;-84
2021/03/15 14:47:34;;;;;;;2.47;1.23;;;13.50;96.60;;;;;;4867467;29;20072;-85
2021/03/15 14:53:22;;;;;;;3.70;1.70;;;13.90;94.10;;;;;;4867556;29;20497;-84
2021/03/15 14:59:10;;;;;;;1.58;1.13;;;14.60;91.80;;;;;;4867118;29;20049;-85
2021/03/15 15:04:59;;;;;;;2.47;1.15;;;12.90;90.60;;;;;;4867275;29;20036;-84
2021/03/15 15:10:47;;;;;;;1.30;1.05;;;13.30;95.10;;;;;;4867335;29;20037;-86
2021/03/15 15:16:36;;;;;;;3.63;1.65;;;12.90;91.60;;;;;;4866933;29;20132;-85
2021/03/15 15:22:24;;;;;;;2.45;1.50;;;13.10;93.00;;;;;;4867021;29;20117;-84
2021/03/15 15:28:14;;;;;;;2.47;1.45;;;12.30;91.80;;;;;;4867239;29;20032;-85
2021/03/15 15:37:56;;;;;;;4.15;1.80;;;11.30;93.00;;;;;;4864494;29;20105;-83
2021/03/15 15:43:46;;;;;;;6.88;2.40;;;10.70;92.70;;;;;;4863891;29;20077;-85
2021/03/15 15:49:34;;;;;;;4.65;1.77;;;10.30;93.20;;;;;;4863856;29;20028;-84
2021/03/15 15:55:24;;;;;;;1.55;1.15;;;9.80;92.20;;;;;;4863824;29;20056;-85
2021/03/15 16:01:12;;;;;;;8.52;2.88;;;8.00;91.20;;;;;;4863654;29;20081;-87
2021/03/15 16:07:01;;;;;;;5.45;2.38;;;9.00;95.30;;;;;;4863668;29;20446;-84
2021/03/15 16:12:50;;;;;;;11.30;3.08;;;9.50;92.70;;;;;;4863458;29;20080;-85
2021/03/15 16:18:40;;;;;;;3.35;1.95;;;8.70;92.20;;;;;;4863723;29;20033;-85
2021/03/15 16:24:28;;;;;;;4.80;1.98;;;8.70;93.60;;;;;;4863455;29;20062;-86
2021/03/15 16:30:41;;;;;;;;;;;8.70;93.30;;;;;;4863663;29;20065;-84
2021/03/15 16:40:31;;;;;;;6.25;2.30;;;8.40;93.10;;;;;;4863798;29;20093;-86
2021/03/15 16:46:20;;;;;;;5.47;2.63;;;8.00;93.10;;;;;;4863310;29;20410;-83
2021/03/15 16:52:09;;;;;;;7.65;2.80;;;7.80;93.30;;;;;;4863330;29;20383;-83
2021/03/15 16:57:57;;;;;;;8.73;3.38;;;7.70;93.60;;;;;;4862822;29;20049;-83
2021/03/15 17:03:45;;;;;;;7.25;2.85;;;7.60;93.70;;;;;;4862738;29;20510;-84
2021/03/15 17:09:34;;;;;;;5.45;2.30;;;7.40;93.30;;;;;;4862709;29;20045;-82
2021/03/15 17:15:22;;;;;;;6.07;2.85;;;7.10;93.20;;;;;;4862323;29;20140;-82
2021/03/15 17:21:11;;;;;;;14.40;6.03;;;6.80;93.40;;;;;;4862106;29;20336;-83
2021/03/15 17:26:59;;;;;;;8.27;3.30;;;6.60;93.50;;;;;;4869867;29;20066;-91
2021/03/15 17:32:48;;;;;;;16.63;5.82;;;6.50;93.60;;;;;;4862207;29;20528;-84
2021/03/15 17:42:33;;;;;;;9.70;4.50;;;6.30;93.80;;;;;;4862136;29;20098;-82
2021/03/15 17:48:21;;;;;;;8.25;3.67;;;6.30;93.90;;;;;;4862138;29;20033;-83
2021/03/15 17:54:09;;;;;;;8.77;3.83;;;6.30;94.00;;;;;;4861584;29;20033;-84
2021/03/15 17:59:57;;;;;;;12.25;4.57;;;6.30;94.10;;;;;;4861901;29;20072;-83
2021/03/15 18:05:45;;;;;;;14.98;5.70;;;6.30;94.10;;;;;;4861497;29;20036;-83
2021/03/15 18:11:35;;;;;;;13.38;3.97;;;6.30;94.20;;;;;;4861697;29;20117;-84
2021/03/15 18:17:24;;;;;;;14.85;4.78;;;6.30;94.20;;;;;;4861243;29;20049;-83
2021/03/15 18:23:14;;;;;;;11.70;4.28;;;6.30;94.10;;;;;;4861564;29;20109;-82
2021/03/15 18:29:07;;;;;;;5.55;2.67;;;6.20;93.90;;;;;;4861308;29;20032;-82
2021/03/15 18:34:57;;;;;;;6.55;2.38;;;6.10;93.80;;;;;;4861165;29;20501;-82
2021/03/15 18:44:41;;;;;;;9.07;3.00;;;5.90;93.90;;;;;;4861156;29;20094;-82
2021/03/15 18:50:39;;;;;;;8.70;2.35;;;5.90;94.00;;;;;;4861517;29;20033;-82
2021/03/15 18:56:30;;;;;;;17.83;5.00;;;5.90;94.20;;;;;;4861232;29;20093;-82
2021/03/15 19:02:19;;;;;;;5.97;2.78;;;6.10;94.40;;;;;;4861303;29;20043;-83
2021/03/15 19:08:11;;;;;;;17.35;5.32;;;6.10;94.20;;;;;;4861096;29;20032;-83
2021/03/15 19:14:13;;;;;;;;;;;;;;;;;;;;;
2021/03/15 19:20:09;;;;;;;8.43;2.92;;;6.10;93.70;;;;;;4864224;29;20037;-82
2021/03/15 19:25:58;;;;;;;8.35;3.30;;;5.70;93.30;;;;;;4864356;29;20101;-82
2021/03/15 19:31:46;;;;;;;7.00;3.05;;;5.30;93.20;;;;;;4864129;29;20028;-83
2021/03/15 19:37:48;;;;;;;9.70;3.55;;;5.10;93.50;;;;;;4864213;29;20060;-85
2021/03/15 19:54:14;;;;;;;7.93;3.10;;;5.00;94.10;;;;;;4864097;29;20105;-85
2021/03/15 20:00:48;;;;;;;11.65;4.22;;;5.00;93.90;;;;;;4864232;29;20068;-85
2021/03/15 20:06:55;;;;;;;;;;;;;;;;;;;;;
2021/03/15 20:12:47;;;;;;;10.40;3.80;;;4.90;93.90;;;;;;4863403;29;20078;-83
2021/03/15 20:18:36;;;;;;;5.50;2.25;;;4.90;94.10;;;;;;4863448;29;20102;-83
2021/03/15 20:24:25;;;;;;;7.43;3.08;;;5.00;94.30;;;;;;4863255;29;20434;-84
2021/03/15 20:30:20;;;;;;;6.28;2.65;;;5.10;94.40;;;;;;4863363;29;20036;-85
2021/03/15 20:36:13;;;;;;;6.75;3.00;;;5.20;94.30;;;;;;4863165;29;20056;-85
2021/03/15 20:42:01;;;;;;;5.47;2.35;;;5.20;94.30;;;;;;4863080;29;20439;-84
2021/03/15 20:48:19;;;;;;;7.82;3.10;;;5.30;94.40;;;;;;4863175;29;20497;-82
2021/03/15 20:54:07;;;;;;;18.35;5.22;;;5.30;94.30;;;;;;4863267;29;20040;-84
2021/03/15 20:59:56;;;;;;;9.38;3.05;;;5.40;94.40;;;;;;4863605;29;20045;-84
2021/03/15 21:05:45;;;;;;;10.85;3.88;;;5.50;94.30;;;;;;4862812;29;20133;-84
2021/03/15 21:11:34;;;;;;;21.65;6.45;;;5.50;94.30;;;;;;4862651;29;20036;-85
2021/03/15 21:17:23;;;;;;;19.23;5.53;;;5.50;94.30;;;;;;4862534;29;20068;-83
2021/03/15 21:23:12;;;;;;;15.80;4.38;;;5.50;94.20;;;;;;4862463;29;20097;-83
2021/03/15 21:29:01;;;;;;;19.45;5.50;;;5.40;94.10;;;;;;4862186;29;20125;-84
2021/03/15 21:34:49;;;;;;;14.38;4.60;;;5.30;94.10;;;;;;4862229;29;20060;-84
2021/03/15 21:40:39;;;;;;;4.13;2.03;;;5.20;94.00;;;;;;4861943;29;20184;-84
2021/03/15 21:50:31;;;;;;;13.32;4.30;;;5.20;94.20;;;;;;4861883;29;20040;-83
2021/03/15 21:56:19;;;;;;;8.77;2.35;;;5.20;94.10;;;;;;4862064;29;20148;-83
2021/03/15 22:02:09;;;;;;;10.13;2.47;;;5.10;94.00;;;;;;4862070;29;20065;-83
2021/03/15 22:07:58;;;;;;;16.77;5.38;;;5.00;93.90;;;;;;4862200;29;20109;-86
2021/03/15 22:13:47;;;;;;;17.27;4.53;;;4.90;93.80;;;;;;4861744;29;20080;-84
2021/03/15 22:19:37;;;;;;;8.20;2.70;;;4.70;93.80;;;;;;4862314;29;20116;-83
2021/03/15 22:25:26;;;;;;;7.53;3.25;;;4.60;93.80;;;;;;4861561;29;20387;-84
2021/03/15 22:31:15;;;;;;;26.63;5.90;;;4.60;94.00;;;;;;4861526;29;20052;-83
2021/03/15 22:37:06;;;;;;;8.38;3.10;;;4.50;93.90;;;;;;4861270;29;20052;-84
2021/03/15 22:42:55;;;;;;;35.22;8.43;;;4.50;94.00;;;;;;4861480;29;20086;-83
2021/03/15 22:52:44;;;;;;;40.03;8.45;;;4.60;94.60;;;;;;4865113;29;20079;-83
2021/03/15 22:58:33;;;;;;;22.33;5.43;;;4.70;94.30;;;;;;4865021;29;20040;-83
2021/03/15 23:04:22;;;;;;;43.42;10.25;;;4.80;94.30;;;;;;4864763;29;20554;-85
2021/03/15 23:10:15;;;;;;;9.25;4.40;;;4.90;94.40;;;;;;4864838;29;20040;-84
2021/03/15 23:16:03;;;;;;;19.08;4.35;;;4.90;94.40;;;;;;4864499;29;20497;-84
2021/03/15 23:21:53;;;;;;;23.02;4.78;;;5.00;94.30;;;;;;4864410;29;20078;-84
2021/03/15 23:27:42;;;;;;;7.47;3.53;;;4.90;94.00;;;;;;4864575;29;20076;-84
2021/03/15 23:33:31;;;;;;;21.60;5.78;;;4.80;94.10;;;;;;4864423;29;20401;-84
2021/03/15 23:39:20;;;;;;;12.90;3.75;;;4.90;94.40;;;;;;4864421;29;20037;-84
2021/03/15 23:45:09;;;;;;;20.52;5.20;;;5.00;94.30;;;;;;4864519;29;20044;-84
2021/03/15 23:54:51;;;;;;;13.63;4.13;;;4.70;93.50;;;;;;4862852;29;20154;-85
